sensor_id;sensor_type;location;lat;lon;timestamp;P1;durP1;ratioP1;P2;durP2;ratioP2
36599;SDS011;35385;55.668;37.508;2023-01-28T00:00:41;14.60;;;10.30;;
36599;SDS011;35385;55.668;37.508;2023-01-28T00:01:41;17.03;;;10.27;;
36599;SDS011;35385;55.668;37.508;2023-01-28T00:02:42;14.37;;;10.23;;
36599;SDS011;35385;55.668;37.508;2023-01-28T00:03:43;16.50;;;10.07;;
36599;SDS011;35385;55.668;37.508;2023-01-28T00:04:43;14.67;;;9.83;;
36599;SDS011;35385;55.668;37.508;2023-01-28T00:05:44;12.73;;;9.03;;
36599;SDS011;35385;55.668;37.508;2023-01-28T00:06:44;15.10;;;9.47;;
36599;SDS011;35385;55.668;37.508;2023-01-28T00:07:47;11.50;;;8.67;;
36599;SDS011;35385;55.668;37.508;2023-01-28T00:08:48;11.48;;;8.40;;
36599;SDS011;35385;55.668;37.508;2023-01-28T00:09:49;14.83;;;9.57;;
36599;SDS011;35385;55.668;37.508;2023-01-28T00:10:50;11.57;;;8.68;;
36599;SDS011;35385;55.668;37.508;2023-01-28T00:11:50;11.73;;;8.00;;
36599;SDS011;35385;55.668;37.508;2023-01-28T00:12:51;13.10;;;8.27;;
36599;SDS011;35385;55.668;37.508;2023-01-28T00:13:52;11.83;;;8.27;;
36599;SDS011;35385;55.668;37.508;2023-01-28T00:14:53;10.40;;;8.05;;
36599;SDS011;35385;55.668;37.508;2023-01-28T00:15:57;8.53;;;6.80;;
36599;SDS011;35385;55.668;37.508;2023-01-28T00:16:59;9.20;;;6.80;;
36599;SDS011;35385;55.668;37.508;2023-01-28T00:17:59;9.37;;;6.57;;
36599;SDS011;35385;55.668;37.508;2023-01-28T00:19:00;7.57;;;6.67;;
36599;SDS011;35385;55.668;37.508;2023-01-28T00:20:00;7.97;;;6.63;;
36599;SDS011;35385;55.668;37.508;2023-01-28T00:21:03;8.45;;;6.68;;
36599;SDS011;35385;55.668;37.508;2023-01-28T00:22:07;8.38;;;5.82;;
36599;SDS011;35385;55.668;37.508;2023-01-28T00:23:08;8.93;;;6.43;;
36599;SDS011;35385;55.668;37.508;2023-01-28T00:24:08;9.87;;;6.77;;
36599;SDS011;35385;55.668;37.508;2023-01-28T00:25:09;9.10;;;6.37;;
36599;SDS011;35385;55.668;37.508;2023-01-28T00:26:11;6.57;;;5.87;;
36599;SDS011;35385;55.668;37.508;2023-01-28T00:27:13;7.38;;;6.10;;
36599;SDS011;35385;55.668;37.508;2023-01-28T00:28:14;6.90;;;5.40;;
36599;SDS011;35385;55.668;37.508;2023-01-28T00:29:14;7.87;;;6.40;;
36599;SDS011;35385;55.668;37.508;2023-01-28T00:30:15;6.57;;;5.27;;
36599;SDS011;35385;55.668;37.508;2023-01-28T00:32:18;6.68;;;5.47;;
36599;SDS011;35385;55.668;37.508;2023-01-28T00:33:19;6.53;;;5.23;;
36599;SDS011;35385;55.668;37.508;2023-01-28T00:34:19;6.27;;;5.43;;
36599;SDS011;35385;55.668;37.508;2023-01-28T00:35:20;6.40;;;5.63;;
36599;SDS011;35385;55.668;37.508;2023-01-28T00:36:21;6.87;;;5.73;;
36599;SDS011;35385;55.668;37.508;2023-01-28T00:37:23;6.10;;;5.50;;
36599;SDS011;35385;55.668;37.508;2023-01-28T00:38:24;6.73;;;5.60;;
36599;SDS011;35385;55.668;37.508;2023-01-28T00:39:24;6.47;;;5.47;;
36599;SDS011;35385;55.668;37.508;2023-01-28T00:40:25;7.32;;;5.72;;
36599;SDS011;35385;55.668;37.508;2023-01-28T00:41:27;9.77;;;6.43;;
36599;SDS011;35385;55.668;37.508;2023-01-28T00:42:28;6.63;;;5.55;;
36599;SDS011;35385;55.668;37.508;2023-01-28T00:43:29;6.53;;;5.83;;
36599;SDS011;35385;55.668;37.508;2023-01-28T00:44:29;6.57;;;5.87;;
36599;SDS011;35385;55.668;37.508;2023-01-28T00:45:30;7.47;;;6.30;;
36599;SDS011;35385;55.668;37.508;2023-01-28T00:46:30;6.23;;;5.40;;
36599;SDS011;35385;55.668;37.508;2023-01-28T00:47:31;6.00;;;5.40;;
36599;SDS011;35385;55.668;37.508;2023-01-28T00:48:32;5.57;;;5.07;;
36599;SDS011;35385;55.668;37.508;2023-01-28T00:49:33;5.78;;;5.18;;
36599;SDS011;35385;55.668;37.508;2023-01-28T00:50:33;7.13;;;5.50;;
36599;SDS011;35385;55.668;37.508;2023-01-28T00:51:34;6.77;;;6.07;;
36599;SDS011;35385;55.668;37.508;2023-01-28T00:52:35;7.23;;;6.20;;
36599;SDS011;35385;55.668;37.508;2023-01-28T00:53:35;9.87;;;6.17;;
36599;SDS011;35385;55.668;37.508;2023-01-28T00:54:37;7.13;;;6.13;;
36599;SDS011;35385;55.668;37.508;2023-01-28T00:55:38;7.77;;;6.60;;
36599;SDS011;35385;55.668;37.508;2023-01-28T00:56:38;7.20;;;6.00;;
36599;SDS011;35385;55.668;37.508;2023-01-28T00:57:39;8.27;;;6.43;;
36599;SDS011;35385;55.668;37.508;2023-01-28T00:58:39;6.57;;;5.77;;
36599;SDS011;35385;55.668;37.508;2023-01-28T00:59:40;8.40;;;6.65;;
36599;SDS011;35385;55.668;37.508;2023-01-28T01:00:41;6.93;;;5.87;;
36599;SDS011;35385;55.668;37.508;2023-01-28T01:01:41;7.53;;;6.63;;
36599;SDS011;35385;55.668;37.508;2023-01-28T01:02:42;6.63;;;5.97;;
36599;SDS011;35385;55.668;37.508;2023-01-28T01:03:42;8.37;;;6.60;;
36599;SDS011;35385;55.668;37.508;2023-01-28T01:04:43;8.40;;;7.10;;
36599;SDS011;35385;55.668;37.508;2023-01-28T01:05:56;6.97;;;6.22;;
36599;SDS011;35385;55.668;37.508;2023-01-28T01:06:56;8.30;;;6.47;;
36599;SDS011;35385;55.668;37.508;2023-01-28T01:07:57;9.33;;;7.27;;
36599;SDS011;35385;55.668;37.508;2023-01-28T01:08:57;8.37;;;7.03;;
36599;SDS011;35385;55.668;37.508;2023-01-28T01:09:58;8.90;;;6.60;;
36599;SDS011;35385;55.668;37.508;2023-01-28T01:11:00;7.90;;;7.10;;
36599;SDS011;35385;55.668;37.508;2023-01-28T01:12:02;7.07;;;6.38;;
36599;SDS011;35385;55.668;37.508;2023-01-28T01:13:04;9.70;;;7.37;;
36599;SDS011;35385;55.668;37.508;2023-01-28T01:14:05;7.93;;;6.47;;
36599;SDS011;35385;55.668;37.508;2023-01-28T01:15:06;8.80;;;6.73;;
36599;SDS011;35385;55.668;37.508;2023-01-28T01:16:10;6.63;;;5.90;;
36599;SDS011;35385;55.668;37.508;2023-01-28T01:17:13;7.20;;;6.50;;
36599;SDS011;35385;55.668;37.508;2023-01-28T01:18:13;8.93;;;7.10;;
36599;SDS011;35385;55.668;37.508;2023-01-28T01:19:14;10.10;;;7.97;;
36599;SDS011;35385;55.668;37.508;2023-01-28T01:20:19;10.33;;;6.63;;
36599;SDS011;35385;55.668;37.508;2023-01-28T01:21:22;7.05;;;6.35;;
36599;SDS011;35385;55.668;37.508;2023-01-28T01:22:24;7.30;;;6.60;;
36599;SDS011;35385;55.668;37.508;2023-01-28T01:23:25;8.60;;;6.60;;
36599;SDS011;35385;55.668;37.508;2023-01-28T01:24:30;6.45;;;5.80;;
36599;SDS011;35385;55.668;37.508;2023-01-28T01:25:33;7.75;;;6.95;;
36599;SDS011;35385;55.668;37.508;2023-01-28T01:26:33;7.20;;;6.47;;
36599;SDS011;35385;55.668;37.508;2023-01-28T01:27:34;6.60;;;5.50;;
36599;SDS011;35385;55.668;37.508;2023-01-28T01:28:36;8.30;;;6.05;;
36599;SDS011;35385;55.668;37.508;2023-01-28T01:29:36;6.57;;;5.72;;
36599;SDS011;35385;55.668;37.508;2023-01-28T01:30:38;5.88;;;5.30;;
36599;SDS011;35385;55.668;37.508;2023-01-28T01:31:38;6.75;;;5.45;;
36599;SDS011;35385;55.668;37.508;2023-01-28T01:32:39;7.00;;;5.77;;
36599;SDS011;35385;55.668;37.508;2023-01-28T01:33:40;6.45;;;5.68;;
36599;SDS011;35385;55.668;37.508;2023-01-28T01:35:42;6.40;;;5.53;;
36599;SDS011;35385;55.668;37.508;2023-01-28T01:36:43;7.07;;;5.47;;
36599;SDS011;35385;55.668;37.508;2023-01-28T01:37:43;7.07;;;5.70;;
36599;SDS011;35385;55.668;37.508;2023-01-28T01:38:44;7.00;;;5.57;;
36599;SDS011;35385;55.668;37.508;2023-01-28T01:39:44;6.93;;;5.03;;
36599;SDS011;35385;55.668;37.508;2023-01-28T01:40:45;6.37;;;5.77;;
36599;SDS011;35385;55.668;37.508;2023-01-28T01:41:46;5.40;;;4.90;;
36599;SDS011;35385;55.668;37.508;2023-01-28T01:42:46;5.03;;;4.53;;
36599;SDS011;35385;55.668;37.508;2023-01-28T01:43:54;7.43;;;5.53;;
36599;SDS011;35385;55.668;37.508;2023-01-28T01:46:02;5.22;;;4.72;;
36599;SDS011;35385;55.668;37.508;2023-01-28T01:47:02;5.43;;;4.93;;
36599;SDS011;35385;55.668;37.508;2023-01-28T01:48:12;6.67;;;5.10;;
36599;SDS011;35385;55.668;37.508;2023-01-28T01:49:22;7.15;;;4.60;;
36599;SDS011;35385;55.668;37.508;2023-01-28T01:50:28;5.40;;;4.55;;
36599;SDS011;35385;55.668;37.508;2023-01-28T01:51:32;5.05;;;4.40;;
36599;SDS011;35385;55.668;37.508;2023-01-28T01:52:35;5.00;;;4.50;;
36599;SDS011;35385;55.668;37.508;2023-01-28T01:53:36;5.50;;;5.00;;
36599;SDS011;35385;55.668;37.508;2023-01-28T01:54:43;5.25;;;4.57;;
36599;SDS011;35385;55.668;37.508;2023-01-28T01:55:49;6.70;;;5.53;;
36599;SDS011;35385;55.668;37.508;2023-01-28T01:56:51;5.30;;;4.80;;
36599;SDS011;35385;55.668;37.508;2023-01-28T01:57:53;5.35;;;4.75;;
36599;SDS011;35385;55.668;37.508;2023-01-28T01:58:55;5.88;;;5.00;;
36599;SDS011;35385;55.668;37.508;2023-01-28T01:59:57;6.43;;;5.30;;
36599;SDS011;35385;55.668;37.508;2023-01-28T02:01:05;6.68;;;5.38;;
36599;SDS011;35385;55.668;37.508;2023-01-28T02:02:06;6.32;;;5.13;;
36599;SDS011;35385;55.668;37.508;2023-01-28T02:03:09;6.45;;;5.32;;
36599;SDS011;35385;55.668;37.508;2023-01-28T02:04:22;6.30;;;5.70;;
36599;SDS011;35385;55.668;37.508;2023-01-28T02:05:25;6.32;;;5.20;;
36599;SDS011;35385;55.668;37.508;2023-01-28T02:06:26;6.30;;;5.70;;
36599;SDS011;35385;55.668;37.508;2023-01-28T02:08:28;7.50;;;5.82;;
36599;SDS011;35385;55.668;37.508;2023-01-28T02:09:30;6.53;;;5.70;;
36599;SDS011;35385;55.668;37.508;2023-01-28T02:10:33;7.10;;;6.03;;
36599;SDS011;35385;55.668;37.508;2023-01-28T02:11:34;6.53;;;5.93;;
36599;SDS011;35385;55.668;37.508;2023-01-28T02:12:35;6.85;;;5.80;;
36599;SDS011;35385;55.668;37.508;2023-01-28T02:13:40;6.80;;;6.10;;
36599;SDS011;35385;55.668;37.508;2023-01-28T02:14:47;9.35;;;6.30;;
36599;SDS011;35385;55.668;37.508;2023-01-28T02:16:03;6.93;;;6.13;;
36599;SDS011;35385;55.668;37.508;2023-01-28T02:17:04;7.88;;;6.30;;
36599;SDS011;35385;55.668;37.508;2023-01-28T02:18:06;8.70;;;6.30;;
36599;SDS011;35385;55.668;37.508;2023-01-28T02:19:06;7.20;;;6.20;;
36599;SDS011;35385;55.668;37.508;2023-01-28T02:30:09;9.73;;;7.97;;
36599;SDS011;35385;55.668;37.508;2023-01-28T02:35:11;8.88;;;7.47;;
36599;SDS011;35385;55.668;37.508;2023-01-28T02:39:08;12.02;;;7.65;;
36599;SDS011;35385;55.668;37.508;2023-01-28T02:40:33;8.38;;;7.50;;
36599;SDS011;35385;55.668;37.508;2023-01-28T02:43:27;10.35;;;7.88;;
36599;SDS011;35385;55.668;37.508;2023-01-28T02:44:37;8.70;;;7.50;;
36599;SDS011;35385;55.668;37.508;2023-01-28T02:45:37;10.43;;;8.00;;
36599;SDS011;35385;55.668;37.508;2023-01-28T02:46:57;9.13;;;7.68;;
36599;SDS011;35385;55.668;37.508;2023-01-28T02:48:16;9.73;;;7.80;;
36599;SDS011;35385;55.668;37.508;2023-01-28T02:50:33;10.27;;;7.93;;
36599;SDS011;35385;55.668;37.508;2023-01-28T02:52:00;9.82;;;7.75;;
36599;SDS011;35385;55.668;37.508;2023-01-28T02:53:24;10.50;;;7.75;;
36599;SDS011;35385;55.668;37.508;2023-01-28T02:54:52;8.88;;;7.93;;
36599;SDS011;35385;55.668;37.508;2023-01-28T02:56:05;9.93;;;7.50;;
36599;SDS011;35385;55.668;37.508;2023-01-28T02:57:37;9.35;;;7.07;;
36599;SDS011;35385;55.668;37.508;2023-01-28T03:00:26;8.63;;;7.72;;
36599;SDS011;35385;55.668;37.508;2023-01-28T03:01:38;8.05;;;7.15;;
36599;SDS011;35385;55.668;37.508;2023-01-28T03:02:57;9.75;;;7.35;;
36599;SDS011;35385;55.668;37.508;2023-01-28T03:04:20;8.18;;;7.20;;
36599;SDS011;35385;55.668;37.508;2023-01-28T03:05:38;8.82;;;7.10;;
36599;SDS011;35385;55.668;37.508;2023-01-28T03:07:03;8.05;;;7.15;;
36599;SDS011;35385;55.668;37.508;2023-01-28T03:08:06;9.93;;;7.40;;
36599;SDS011;35385;55.668;37.508;2023-01-28T03:09:26;9.57;;;6.95;;
36599;SDS011;35385;55.668;37.508;2023-01-28T03:10:26;8.67;;;7.47;;
36599;SDS011;35385;55.668;37.508;2023-01-28T03:11:29;8.90;;;7.38;;
36599;SDS011;35385;55.668;37.508;2023-01-28T03:12:52;9.52;;;7.93;;
36599;SDS011;35385;55.668;37.508;2023-01-28T03:14:15;9.77;;;7.53;;
36599;SDS011;35385;55.668;37.508;2023-01-28T03:15:53;8.50;;;7.60;;
36599;SDS011;35385;55.668;37.508;2023-01-28T03:17:14;9.43;;;7.28;;
36599;SDS011;35385;55.668;37.508;2023-01-28T03:18:39;8.30;;;7.38;;
36599;SDS011;35385;55.668;37.508;2023-01-28T03:20:01;9.38;;;6.95;;
36599;SDS011;35385;55.668;37.508;2023-01-28T03:21:24;9.40;;;7.38;;
36599;SDS011;35385;55.668;37.508;2023-01-28T03:22:48;8.82;;;7.53;;
36599;SDS011;35385;55.668;37.508;2023-01-28T03:24:13;8.80;;;7.07;;
36599;SDS011;35385;55.668;37.508;2023-01-28T03:25:39;8.13;;;7.28;;
36599;SDS011;35385;55.668;37.508;2023-01-28T03:27:11;8.77;;;7.57;;
36599;SDS011;35385;55.668;37.508;2023-01-28T03:28:44;10.18;;;7.43;;
36599;SDS011;35385;55.668;37.508;2023-01-28T03:30:10;9.38;;;7.15;;
36599;SDS011;35385;55.668;37.508;2023-01-28T03:31:34;10.35;;;7.35;;
36599;SDS011;35385;55.668;37.508;2023-01-28T03:32:55;10.13;;;7.78;;
36599;SDS011;35385;55.668;37.508;2023-01-28T03:34:14;9.57;;;7.45;;
36599;SDS011;35385;55.668;37.508;2023-01-28T03:35:34;9.63;;;7.68;;
36599;SDS011;35385;55.668;37.508;2023-01-28T03:36:54;8.55;;;7.40;;
36599;SDS011;35385;55.668;37.508;2023-01-28T03:37:55;12.40;;;8.00;;
36599;SDS011;35385;55.668;37.508;2023-01-28T03:38:59;10.57;;;7.75;;
36599;SDS011;35385;55.668;37.508;2023-01-28T03:40:00;9.73;;;7.77;;
36599;SDS011;35385;55.668;37.508;2023-01-28T03:41:04;10.45;;;7.78;;
36599;SDS011;35385;55.668;37.508;2023-01-28T03:42:08;8.90;;;7.50;;
36599;SDS011;35385;55.668;37.508;2023-01-28T03:43:11;9.68;;;7.70;;
36599;SDS011;35385;55.668;37.508;2023-01-28T03:44:12;10.43;;;8.67;;
36599;SDS011;35385;55.668;37.508;2023-01-28T03:45:31;10.88;;;8.18;;
36599;SDS011;35385;55.668;37.508;2023-01-28T03:46:32;11.43;;;8.80;;
36599;SDS011;35385;55.668;37.508;2023-01-28T03:47:32;10.77;;;8.03;;
36599;SDS011;35385;55.668;37.508;2023-01-28T03:48:33;10.67;;;7.73;;
36599;SDS011;35385;55.668;37.508;2023-01-28T03:49:34;9.50;;;8.33;;
36599;SDS011;35385;55.668;37.508;2023-01-28T03:50:34;8.33;;;7.50;;
36599;SDS011;35385;55.668;37.508;2023-01-28T03:51:35;8.80;;;7.57;;
36599;SDS011;35385;55.668;37.508;2023-01-28T03:52:35;15.57;;;7.50;;
36599;SDS011;35385;55.668;37.508;2023-01-28T03:53:36;7.70;;;6.60;;
36599;SDS011;35385;55.668;37.508;2023-01-28T03:54:39;10.93;;;7.72;;
36599;SDS011;35385;55.668;37.508;2023-01-28T03:55:40;8.83;;;7.60;;
36599;SDS011;35385;55.668;37.508;2023-01-28T03:57:42;10.95;;;7.82;;
36599;SDS011;35385;55.668;37.508;2023-01-28T03:59:55;9.18;;;7.15;;
36599;SDS011;35385;55.668;37.508;2023-01-28T04:00:56;9.50;;;7.87;;
36599;SDS011;35385;55.668;37.508;2023-01-28T04:01:56;9.50;;;7.80;;
36599;SDS011;35385;55.668;37.508;2023-01-28T04:02:57;8.90;;;7.87;;
36599;SDS011;35385;55.668;37.508;2023-01-28T04:03:58;9.43;;;8.05;;
36599;SDS011;35385;55.668;37.508;2023-01-28T04:04:58;9.70;;;7.90;;
36599;SDS011;35385;55.668;37.508;2023-01-28T04:06:01;8.13;;;7.30;;
36599;SDS011;35385;55.668;37.508;2023-01-28T04:07:06;9.95;;;8.43;;
36599;SDS011;35385;55.668;37.508;2023-01-28T04:08:07;9.10;;;7.78;;
36599;SDS011;35385;55.668;37.508;2023-01-28T04:09:08;8.87;;;7.63;;
36599;SDS011;35385;55.668;37.508;2023-01-28T04:10:09;9.83;;;7.73;;
36599;SDS011;35385;55.668;37.508;2023-01-28T04:11:09;10.23;;;8.37;;
36599;SDS011;35385;55.668;37.508;2023-01-28T04:12:18;9.68;;;7.75;;
36599;SDS011;35385;55.668;37.508;2023-01-28T04:13:19;8.50;;;7.33;;
36599;SDS011;35385;55.668;37.508;2023-01-28T04:14:19;9.37;;;7.97;;
36599;SDS011;35385;55.668;37.508;2023-01-28T04:15:20;10.40;;;8.00;;
36599;SDS011;35385;55.668;37.508;2023-01-28T04:16:21;9.88;;;7.65;;
36599;SDS011;35385;55.668;37.508;2023-01-28T04:17:22;9.30;;;7.53;;
36599;SDS011;35385;55.668;37.508;2023-01-28T04:18:23;8.55;;;7.22;;
36599;SDS011;35385;55.668;37.508;2023-01-28T04:19:26;8.77;;;7.35;;
36599;SDS011;35385;55.668;37.508;2023-01-28T04:20:27;11.23;;;7.95;;
36599;SDS011;35385;55.668;37.508;2023-01-28T04:21:28;10.30;;;7.20;;
36599;SDS011;35385;55.668;37.508;2023-01-28T04:22:29;8.73;;;6.87;;
36599;SDS011;35385;55.668;37.508;2023-01-28T04:23:30;9.47;;;8.37;;
36599;SDS011;35385;55.668;37.508;2023-01-28T04:24:30;10.27;;;8.10;;
36599;SDS011;35385;55.668;37.508;2023-01-28T04:25:31;8.63;;;7.73;;
36599;SDS011;35385;55.668;37.508;2023-01-28T04:26:31;12.17;;;8.37;;
36599;SDS011;35385;55.668;37.508;2023-01-28T04:27:32;9.27;;;8.20;;
36599;SDS011;35385;55.668;37.508;2023-01-28T04:28:33;10.27;;;7.97;;
36599;SDS011;35385;55.668;37.508;2023-01-28T04:29:33;10.23;;;7.70;;
36599;SDS011;35385;55.668;37.508;2023-01-28T04:30:34;8.73;;;7.67;;
36599;SDS011;35385;55.668;37.508;2023-01-28T04:31:34;9.43;;;8.10;;
36599;SDS011;35385;55.668;37.508;2023-01-28T04:32:35;9.60;;;7.60;;
36599;SDS011;35385;55.668;37.508;2023-01-28T04:33:35;9.97;;;7.90;;
36599;SDS011;35385;55.668;37.508;2023-01-28T04:34:36;14.00;;;8.17;;
36599;SDS011;35385;55.668;37.508;2023-01-28T04:35:37;9.67;;;8.07;;
36599;SDS011;35385;55.668;37.508;2023-01-28T04:36:37;9.87;;;7.70;;
36599;SDS011;35385;55.668;37.508;2023-01-28T04:37:39;9.17;;;7.07;;
36599;SDS011;35385;55.668;37.508;2023-01-28T04:38:40;10.18;;;7.45;;
36599;SDS011;35385;55.668;37.508;2023-01-28T04:39:41;10.13;;;7.97;;
36599;SDS011;35385;55.668;37.508;2023-01-28T04:40:41;9.87;;;7.80;;
36599;SDS011;35385;55.668;37.508;2023-01-28T04:41:42;9.80;;;7.37;;
36599;SDS011;35385;55.668;37.508;2023-01-28T04:42:42;8.97;;;7.40;;
36599;SDS011;35385;55.668;37.508;2023-01-28T04:43:52;10.82;;;7.43;;
36599;SDS011;35385;55.668;37.508;2023-01-28T04:44:53;9.23;;;7.80;;
36599;SDS011;35385;55.668;37.508;2023-01-28T04:45:53;9.90;;;7.73;;
36599;SDS011;35385;55.668;37.508;2023-01-28T04:46:54;9.63;;;7.93;;
36599;SDS011;35385;55.668;37.508;2023-01-28T04:47:54;11.20;;;8.17;;
36599;SDS011;35385;55.668;37.508;2023-01-28T04:48:55;10.33;;;7.83;;
36599;SDS011;35385;55.668;37.508;2023-01-28T04:49:55;11.20;;;8.17;;
36599;SDS011;35385;55.668;37.508;2023-01-28T04:50:56;9.07;;;7.70;;
36599;SDS011;35385;55.668;37.508;2023-01-28T04:51:56;9.95;;;7.88;;
36599;SDS011;35385;55.668;37.508;2023-01-28T04:52:57;9.87;;;7.90;;
36599;SDS011;35385;55.668;37.508;2023-01-28T04:53:58;10.10;;;8.50;;
36599;SDS011;35385;55.668;37.508;2023-01-28T04:54:58;10.17;;;7.43;;
36599;SDS011;35385;55.668;37.508;2023-01-28T04:57:00;9.75;;;6.93;;
36599;SDS011;35385;55.668;37.508;2023-01-28T04:58:01;9.17;;;7.63;;
36599;SDS011;35385;55.668;37.508;2023-01-28T04:59:01;8.67;;;7.67;;
36599;SDS011;35385;55.668;37.508;2023-01-28T05:00:02;8.87;;;7.13;;
36599;SDS011;35385;55.668;37.508;2023-01-28T05:01:04;10.38;;;7.38;;
36599;SDS011;35385;55.668;37.508;2023-01-28T05:02:05;11.40;;;8.43;;
36599;SDS011;35385;55.668;37.508;2023-01-28T05:03:05;8.97;;;7.00;;
36599;SDS011;35385;55.668;37.508;2023-01-28T05:04:06;9.60;;;8.03;;
36599;SDS011;35385;55.668;37.508;2023-01-28T05:05:06;9.10;;;7.40;;
36599;SDS011;35385;55.668;37.508;2023-01-28T05:06:10;11.10;;;8.68;;
36599;SDS011;35385;55.668;37.508;2023-01-28T05:07:10;9.70;;;7.80;;
36599;SDS011;35385;55.668;37.508;2023-01-28T05:08:11;10.17;;;7.67;;
36599;SDS011;35385;55.668;37.508;2023-01-28T05:09:11;11.23;;;8.10;;
36599;SDS011;35385;55.668;37.508;2023-01-28T05:10:12;11.33;;;8.37;;
36599;SDS011;35385;55.668;37.508;2023-01-28T05:11:12;11.00;;;7.80;;
36599;SDS011;35385;55.668;37.508;2023-01-28T05:12:13;9.43;;;7.50;;
36599;SDS011;35385;55.668;37.508;2023-01-28T05:13:14;9.73;;;7.80;;
36599;SDS011;35385;55.668;37.508;2023-01-28T05:14:14;8.90;;;7.37;;
36599;SDS011;35385;55.668;37.508;2023-01-28T05:15:15;11.10;;;8.30;;
36599;SDS011;35385;55.668;37.508;2023-01-28T05:16:17;10.20;;;7.60;;
36599;SDS011;35385;55.668;37.508;2023-01-28T05:17:17;9.37;;;7.60;;
36599;SDS011;35385;55.668;37.508;2023-01-28T05:18:18;8.90;;;7.20;;
36599;SDS011;35385;55.668;37.508;2023-01-28T05:19:19;9.63;;;7.57;;
36599;SDS011;35385;55.668;37.508;2023-01-28T05:20:20;8.93;;;7.57;;
36599;SDS011;35385;55.668;37.508;2023-01-28T05:21:20;10.03;;;7.90;;
36599;SDS011;35385;55.668;37.508;2023-01-28T05:22:21;9.53;;;7.53;;
36599;SDS011;35385;55.668;37.508;2023-01-28T05:23:21;9.40;;;7.80;;
36599;SDS011;35385;55.668;37.508;2023-01-28T05:24:22;11.47;;;8.83;;
36599;SDS011;35385;55.668;37.508;2023-01-28T05:25:23;9.10;;;7.23;;
36599;SDS011;35385;55.668;37.508;2023-01-28T05:26:23;9.50;;;7.23;;
36599;SDS011;35385;55.668;37.508;2023-01-28T05:27:24;9.30;;;7.50;;
36599;SDS011;35385;55.668;37.508;2023-01-28T05:28:24;8.13;;;7.07;;
36599;SDS011;35385;55.668;37.508;2023-01-28T05:29:25;9.57;;;7.43;;
36599;SDS011;35385;55.668;37.508;2023-01-28T05:30:26;9.40;;;7.63;;
36599;SDS011;35385;55.668;37.508;2023-01-28T05:31:26;9.57;;;7.70;;
36599;SDS011;35385;55.668;37.508;2023-01-28T05:32:27;9.73;;;7.60;;
36599;SDS011;35385;55.668;37.508;2023-01-28T05:33:27;7.83;;;6.37;;
36599;SDS011;35385;55.668;37.508;2023-01-28T05:34:28;10.23;;;7.83;;
36599;SDS011;35385;55.668;37.508;2023-01-28T05:35:28;9.40;;;7.73;;
36599;SDS011;35385;55.668;37.508;2023-01-28T05:36:29;10.03;;;8.00;;
36599;SDS011;35385;55.668;37.508;2023-01-28T05:37:29;10.83;;;7.40;;
36599;SDS011;35385;55.668;37.508;2023-01-28T05:38:30;11.63;;;7.57;;
36599;SDS011;35385;55.668;37.508;2023-01-28T05:39:30;10.97;;;7.00;;
36599;SDS011;35385;55.668;37.508;2023-01-28T05:40:31;8.40;;;6.97;;
36599;SDS011;35385;55.668;37.508;2023-01-28T05:41:32;7.73;;;6.93;;
36599;SDS011;35385;55.668;37.508;2023-01-28T05:42:33;9.68;;;7.65;;
36599;SDS011;35385;55.668;37.508;2023-01-28T05:43:33;9.13;;;7.33;;
36599;SDS011;35385;55.668;37.508;2023-01-28T05:44:34;9.80;;;7.63;;
36599;SDS011;35385;55.668;37.508;2023-01-28T05:45:36;9.38;;;7.25;;
36599;SDS011;35385;55.668;37.508;2023-01-28T05:46:37;8.57;;;7.00;;
36599;SDS011;35385;55.668;37.508;2023-01-28T05:47:40;10.18;;;6.90;;
36599;SDS011;35385;55.668;37.508;2023-01-28T05:48:40;9.40;;;7.50;;
36599;SDS011;35385;55.668;37.508;2023-01-28T05:49:41;9.37;;;7.27;;
36599;SDS011;35385;55.668;37.508;2023-01-28T05:50:41;8.40;;;6.23;;
36599;SDS011;35385;55.668;37.508;2023-01-28T05:51:42;9.53;;;7.63;;
36599;SDS011;35385;55.668;37.508;2023-01-28T05:52:43;9.40;;;6.77;;
36599;SDS011;35385;55.668;37.508;2023-01-28T05:53:43;9.37;;;7.30;;
36599;SDS011;35385;55.668;37.508;2023-01-28T05:54:44;9.97;;;7.57;;
36599;SDS011;35385;55.668;37.508;2023-01-28T05:55:51;9.30;;;7.47;;
36599;SDS011;35385;55.668;37.508;2023-01-28T05:56:52;8.80;;;7.18;;
36599;SDS011;35385;55.668;37.508;2023-01-28T05:57:53;8.63;;;7.10;;
36599;SDS011;35385;55.668;37.508;2023-01-28T05:58:53;10.73;;;7.60;;
36599;SDS011;35385;55.668;37.508;2023-01-28T05:59:54;9.70;;;7.23;;
36599;SDS011;35385;55.668;37.508;2023-01-28T06:00:55;10.13;;;8.18;;
36599;SDS011;35385;55.668;37.508;2023-01-28T06:01:55;10.07;;;7.73;;
36599;SDS011;35385;55.668;37.508;2023-01-28T06:02:56;10.73;;;6.93;;
36599;SDS011;35385;55.668;37.508;2023-01-28T06:03:57;9.05;;;7.55;;
36599;SDS011;35385;55.668;37.508;2023-01-28T06:04:58;9.23;;;7.60;;
36599;SDS011;35385;55.668;37.508;2023-01-28T06:05:59;11.40;;;7.13;;
36599;SDS011;35385;55.668;37.508;2023-01-28T06:06:59;11.67;;;7.87;;
36599;SDS011;35385;55.668;37.508;2023-01-28T06:08:00;9.87;;;7.73;;
36599;SDS011;35385;55.668;37.508;2023-01-28T06:09:01;9.70;;;7.60;;
36599;SDS011;35385;55.668;37.508;2023-01-28T06:10:01;11.67;;;8.17;;
36599;SDS011;35385;55.668;37.508;2023-01-28T06:11:03;14.25;;;8.35;;
36599;SDS011;35385;55.668;37.508;2023-01-28T06:12:04;10.10;;;8.00;;
36599;SDS011;35385;55.668;37.508;2023-01-28T06:13:05;11.77;;;7.78;;
36599;SDS011;35385;55.668;37.508;2023-01-28T06:14:05;11.43;;;7.60;;
36599;SDS011;35385;55.668;37.508;2023-01-28T06:15:06;10.73;;;8.17;;
36599;SDS011;35385;55.668;37.508;2023-01-28T06:16:07;10.07;;;7.35;;
36599;SDS011;35385;55.668;37.508;2023-01-28T06:17:08;8.13;;;7.30;;
36599;SDS011;35385;55.668;37.508;2023-01-28T06:18:08;11.40;;;7.37;;
36599;SDS011;35385;55.668;37.508;2023-01-28T06:19:09;8.93;;;8.00;;
36599;SDS011;35385;55.668;37.508;2023-01-28T06:20:09;9.40;;;7.63;;
36599;SDS011;35385;55.668;37.508;2023-01-28T06:21:10;10.60;;;7.75;;
36599;SDS011;35385;55.668;37.508;2023-01-28T06:22:10;11.83;;;7.73;;
36599;SDS011;35385;55.668;37.508;2023-01-28T06:23:11;11.43;;;8.20;;
36599;SDS011;35385;55.668;37.508;2023-01-28T06:24:12;10.43;;;7.70;;
36599;SDS011;35385;55.668;37.508;2023-01-28T06:25:13;11.23;;;7.90;;
36599;SDS011;35385;55.668;37.508;2023-01-28T06:26:13;11.67;;;7.77;;
36599;SDS011;35385;55.668;37.508;2023-01-28T06:27:14;10.30;;;7.40;;
36599;SDS011;35385;55.668;37.508;2023-01-28T06:28:14;11.83;;;8.10;;
36599;SDS011;35385;55.668;37.508;2023-01-28T06:29:15;9.80;;;7.97;;
36599;SDS011;35385;55.668;37.508;2023-01-28T06:30:16;9.87;;;8.00;;
36599;SDS011;35385;55.668;37.508;2023-01-28T06:31:16;9.13;;;7.53;;
36599;SDS011;35385;55.668;37.508;2023-01-28T06:32:18;10.68;;;7.80;;
36599;SDS011;35385;55.668;37.508;2023-01-28T06:33:19;10.83;;;7.70;;
36599;SDS011;35385;55.668;37.508;2023-01-28T06:34:20;11.77;;;8.20;;
36599;SDS011;35385;55.668;37.508;2023-01-28T06:35:21;10.93;;;8.50;;
36599;SDS011;35385;55.668;37.508;2023-01-28T06:36:22;10.60;;;7.85;;
36599;SDS011;35385;55.668;37.508;2023-01-28T06:37:22;10.30;;;7.87;;
36599;SDS011;35385;55.668;37.508;2023-01-28T06:38:23;10.27;;;8.30;;
36599;SDS011;35385;55.668;37.508;2023-01-28T06:39:23;11.47;;;8.63;;
36599;SDS011;35385;55.668;37.508;2023-01-28T06:40:26;12.60;;;8.20;;
36599;SDS011;35385;55.668;37.508;2023-01-28T06:41:26;13.10;;;9.20;;
36599;SDS011;35385;55.668;37.508;2023-01-28T06:42:27;11.03;;;8.73;;
36599;SDS011;35385;55.668;37.508;2023-01-28T06:43:27;10.03;;;7.70;;
36599;SDS011;35385;55.668;37.508;2023-01-28T06:44:29;14.85;;;8.40;;